Time;durP1;ratioP1;P1;durP2;ratioP2;P2;SDS_P1;SDS_P2;PMS_P1;PMS_P2;Temp;Humidity;BMP_temperature;BMP_pressure;BME280_temperature;BME280_humidity;BME280_pressure;Samples;Min_cycle;Max_cycle;Signal;HPM_P1;HPM_P2
2023/08/17 00:01:20;;;;;;;7.10;5.83;;;21.00;99.90;;;;;;5054026;28;20699;-72
2023/08/17 00:03:45;;;;;;;6.97;5.00;;;21.00;99.90;;;;;;5053934;28;20171;-73
2023/08/17 00:06:11;;;;;;;5.17;4.70;;;20.90;99.90;;;;;;5053908;28;20178;-73
2023/08/17 00:08:36;;;;;;;6.33;4.93;;;20.90;99.90;;;;;;5053758;28;20225;-73
2023/08/17 00:11:02;;;;;;;4.90;4.40;;;20.90;99.90;;;;;;5052565;28;20707;-72
2023/08/17 00:13:28;;;;;;;6.90;4.90;;;20.90;99.90;;;;;;5052516;28;20200;-73
2023/08/17 00:15:53;;;;;;;5.37;4.87;;;20.90;99.90;;;;;;5053480;28;20254;-72
2023/08/17 00:18:19;;;;;;;5.57;5.07;;;20.90;99.90;;;;;;5053454;28;20640;-72
2023/08/17 00:20:44;;;;;;;10.67;5.60;;;20.90;99.90;;;;;;5052415;28;20178;-71
2023/08/17 00:23:10;;;;;;;5.10;4.60;;;20.90;99.90;;;;;;5053528;28;20232;-71
2023/08/17 00:25:36;;;;;;;8.57;4.60;;;20.80;99.90;;;;;;5053223;28;20524;-73
2023/08/17 00:28:01;;;;;;;4.57;4.10;;;20.80;99.90;;;;;;5053294;28;20445;-72
2023/08/17 00:30:27;;;;;;;4.43;4.03;;;20.80;99.90;;;;;;5053412;28;20194;-72
2023/08/17 00:32:52;;;;;;;4.60;4.20;;;20.70;99.90;;;;;;5053381;28;20557;-73
2023/08/17 00:35:18;;;;;;;5.83;4.03;;;20.70;99.90;;;;;;5053013;28;20221;-72
2023/08/17 00:37:43;;;;;;;4.30;3.93;;;20.70;99.90;;;;;;5053386;28;20163;-72
2023/08/17 00:40:09;;;;;;;6.13;5.50;;;20.70;99.90;;;;;;5053325;28;20534;-73
2023/08/17 00:42:35;;;;;;;5.73;5.00;;;20.70;99.90;;;;;;5053325;28;20269;-71
2023/08/17 00:45:00;;;;;;;5.20;4.70;;;20.70;99.90;;;;;;5052889;28;20518;-72
2023/08/17 00:47:26;;;;;;;5.70;4.80;;;20.60;99.90;;;;;;5053131;28;20578;-72
2023/08/17 00:49:52;;;;;;;4.73;4.30;;;20.60;99.90;;;;;;5053090;28;20163;-71
2023/08/17 00:52:17;;;;;;;5.90;4.20;;;20.50;99.90;;;;;;5051723;28;20186;-72
2023/08/17 00:54:43;;;;;;;5.80;3.97;;;20.50;99.90;;;;;;5051685;28;20180;-72
2023/08/17 00:57:09;;;;;;;7.17;5.47;;;20.40;99.90;;;;;;5052755;28;20167;-72
2023/08/17 00:59:35;;;;;;;4.43;3.97;;;20.30;99.90;;;;;;5052977;28;20190;-72
2023/08/17 01:02:01;;;;;;;6.83;3.97;;;20.30;99.90;;;;;;5052915;28;20417;-73
2023/08/17 01:04:27;;;;;;;4.33;4.03;;;20.10;99.90;;;;;;5052832;28;20939;-72
2023/08/17 01:06:53;;;;;;;5.30;4.63;;;20.10;99.90;;;;;;5052522;28;20526;-71
2023/08/17 01:09:19;;;;;;;6.40;4.47;;;20.00;99.90;;;;;;5052760;28;20199;-72
2023/08/17 01:11:56;;;;;;;4.80;4.40;;;19.90;99.90;;;;;;5052611;28;20548;-72
2023/08/17 01:14:38;;;;;;;4.23;3.87;;;19.80;99.90;;;;;;5052713;28;20447;-71
2023/08/17 01:17:14;;;;;;;5.43;4.93;;;19.70;99.90;;;;;;5052445;28;20402;-72
2023/08/17 01:19:42;;;;;;;4.40;4.00;;;19.80;99.90;;;;;;5052683;28;20432;-72
2023/08/17 01:22:10;;;;;;;4.77;4.27;;;19.70;99.90;;;;;;5052338;28;20425;-72
2023/08/17 01:24:36;;;;;;;8.67;4.60;;;19.70;99.90;;;;;;5052437;28;20798;-71
2023/08/17 01:27:01;;;;;;;6.73;4.53;;;19.60;99.90;;;;;;5052204;28;20398;-72
2023/08/17 01:29:27;;;;;;;4.80;4.40;;;19.60;99.90;;;;;;5052436;28;20662;-72
2023/08/17 01:32:25;;;;;;;4.27;3.83;;;19.60;99.90;;;;;;5052250;28;20621;-72
2023/08/17 01:34:58;;;;;;;6.17;5.00;;;19.60;99.90;;;;;;5047337;28;20183;-72
2023/08/17 01:37:28;;;;;;;5.60;4.33;;;19.60;99.90;;;;;;5051832;28;20489;-73
2023/08/17 01:39:56;;;;;;;7.00;4.60;;;19.60;99.90;;;;;;5052349;28;20393;-73
2023/08/17 01:42:23;;;;;;;5.60;5.00;;;19.60;99.90;;;;;;5052154;28;20471;-73
2023/08/17 01:44:49;;;;;;;4.73;4.00;;;19.60;99.90;;;;;;5052184;28;20480;-72
2023/08/17 01:47:14;;;;;;;5.83;5.07;;;19.60;99.90;;;;;;5051768;28;20568;-71
2023/08/17 01:49:40;;;;;;;5.90;4.90;;;19.60;99.90;;;;;;5052065;28;20174;-72
2023/08/17 01:52:05;;;;;;;4.43;4.13;;;19.60;99.90;;;;;;5051929;28;20236;-72
2023/08/17 01:54:31;;;;;;;6.50;5.23;;;19.60;99.90;;;;;;5052188;28;20171;-72
2023/08/17 01:56:57;;;;;;;5.93;5.33;;;19.70;99.90;;;;;;5051679;28;20167;-72
2023/08/17 01:59:22;;;;;;;6.17;5.57;;;19.70;99.90;;;;;;5052016;28;20175;-72
2023/08/17 02:01:48;;;;;;;5.80;5.30;;;19.80;99.90;;;;;;5051822;28;20690;-71
2023/08/17 02:04:14;;;;;;;6.00;5.30;;;19.80;99.90;;;;;;5052045;28;20542;-72
2023/08/17 02:06:39;;;;;;;6.10;5.60;;;19.80;99.90;;;;;;5051468;28;20248;-73
2023/08/17 02:09:05;;;;;;;6.20;5.40;;;19.90;99.90;;;;;;5051831;28;20908;-71
2023/08/17 02:11:31;;;;;;;6.67;6.10;;;19.90;99.90;;;;;;5051631;28;20228;-72
2023/08/17 02:13:56;;;;;;;6.03;5.20;;;19.90;99.90;;;;;;5051889;28;20226;-73
2023/08/17 02:16:22;;;;;;;5.20;4.70;;;20.00;99.90;;;;;;5051563;28;20163;-73
2023/08/17 02:18:47;;;;;;;6.93;6.30;;;20.00;99.90;;;;;;5051700;28;20163;-72
2023/08/17 02:21:13;;;;;;;5.53;5.00;;;20.00;99.90;;;;;;5051750;28;20221;-72
2023/08/17 02:23:38;;;;;;;5.50;5.00;;;20.00;99.90;;;;;;5051536;28;20171;-72
2023/08/17 02:26:03;;;;;;;5.37;4.80;;;20.00;99.90;;;;;;5051490;28;20655;-72
2023/08/17 02:28:29;;;;;;;6.97;6.37;;;20.10;99.90;;;;;;5051604;28;20186;-73
2023/08/17 02:30:56;;;;;;;6.40;5.27;;;20.10;99.90;;;;;;5051647;28;20217;-73
2023/08/17 02:33:22;;;;;;;5.73;5.10;;;20.10;99.90;;;;;;5051486;28;20246;-73
2023/08/17 02:35:51;;;;;;;5.40;4.90;;;20.10;99.90;;;;;;5051384;28;20405;-73
2023/08/17 02:38:17;;;;;;;5.60;5.20;;;20.10;99.90;;;;;;5051567;28;20411;-73
2023/08/17 02:40:43;;;;;;;5.83;5.40;;;20.10;99.90;;;;;;5051441;28;20499;-73
2023/08/17 02:43:08;;;;;;;5.57;5.17;;;20.20;99.90;;;;;;5050318;28;20175;-73
2023/08/17 02:45:34;;;;;;;6.30;5.70;;;20.20;99.90;;;;;;5049976;28;20171;-73
2023/08/17 02:47:59;;;;;;;5.07;4.67;;;20.20;99.90;;;;;;5051446;28;20521;-72
2023/08/17 02:50:25;;;;;;;7.30;6.00;;;20.20;99.90;;;;;;5053225;28;20458;-72
2023/08/17 02:52:51;;;;;;;7.53;5.10;;;20.20;99.90;;;;;;5055281;28;20186;-72
2023/08/17 02:55:16;;;;;;;7.10;5.60;;;20.20;99.90;;;;;;5054895;28;20705;-71
2023/08/17 02:57:42;;;;;;;6.00;5.33;;;20.20;99.90;;;;;;5055348;28;20225;-72
2023/08/17 03:00:08;;;;;;;7.07;5.83;;;20.20;99.90;;;;;;5055349;28;20175;-72
2023/08/17 03:02:34;;;;;;;5.33;4.90;;;20.20;99.90;;;;;;5055146;28;20202;-72
2023/08/17 03:04:59;;;;;;;5.47;5.07;;;20.20;99.90;;;;;;5054969;28;20405;-72
2023/08/17 03:07:25;;;;;;;6.37;5.77;;;20.20;99.90;;;;;;5054910;28;20211;-72
2023/08/17 03:09:50;;;;;;;6.00;5.10;;;20.20;99.90;;;;;;5055075;28;20624;-73
2023/08/17 03:12:16;;;;;;;6.90;6.20;;;20.20;99.90;;;;;;5054998;28;20191;-72
2023/08/17 03:14:41;;;;;;;5.93;5.40;;;20.20;99.90;;;;;;5054858;28;20178;-72
2023/08/17 03:17:07;;;;;;;5.50;5.00;;;20.20;99.90;;;;;;5054698;28;20167;-72
2023/08/17 03:19:32;;;;;;;5.80;5.40;;;20.20;99.90;;;;;;5053614;28;20704;-73
2023/08/17 03:21:58;;;;;;;9.77;5.90;;;20.20;99.90;;;;;;5054841;28;20190;-73
2023/08/17 03:24:23;;;;;;;6.70;5.83;;;20.20;99.90;;;;;;5054902;28;20167;-72
2023/08/17 03:26:49;;;;;;;9.10;6.07;;;20.20;99.90;;;;;;5054502;28;20252;-73
2023/08/17 03:29:14;;;;;;;6.17;5.57;;;20.20;99.90;;;;;;5054584;28;20199;-73
2023/08/17 03:31:40;;;;;;;7.57;6.90;;;20.20;99.90;;;;;;5054649;28;20186;-72
2023/08/17 03:34:06;;;;;;;6.27;5.67;;;20.20;99.90;;;;;;5054543;28;20190;-72
2023/08/17 03:36:31;;;;;;;8.60;5.80;;;20.20;99.90;;;;;;5054306;28;20163;-71
2023/08/17 03:38:57;;;;;;;7.20;6.57;;;20.20;99.90;;;;;;5054615;28;20170;-73
2023/08/17 03:41:25;;;;;;;6.33;5.83;;;20.20;99.90;;;;;;5054420;28;20187;-73
2023/08/17 03:43:50;;;;;;;8.40;6.20;;;20.20;99.90;;;;;;5054423;28;20659;-73
2023/08/17 03:46:16;;;;;;;5.80;5.37;;;20.20;99.90;;;;;;5054035;28;20410;-72
2023/08/17 03:48:41;;;;;;;6.97;6.27;;;20.20;99.90;;;;;;5054289;28;20206;-72
2023/08/17 03:51:07;;;;;;;6.63;6.03;;;20.10;99.90;;;;;;5054231;28;20258;-73
2023/08/17 03:53:32;;;;;;;8.50;6.57;;;20.10;99.90;;;;;;5054231;28;20281;-73
2023/08/17 03:55:58;;;;;;;6.13;5.53;;;20.10;99.90;;;;;;5053909;28;20570;-72
2023/08/17 03:58:26;;;;;;;6.80;6.10;;;20.10;99.90;;;;;;5054105;28;20167;-73
2023/08/17 04:00:52;;;;;;;9.83;5.97;;;20.10;99.90;;;;;;5052372;28;20600;-73
2023/08/17 04:03:19;;;;;;;6.13;5.57;;;20.00;99.90;;;;;;5054134;28;20949;-72
2023/08/17 04:05:44;;;;;;;5.37;4.90;;;20.00;99.90;;;;;;5053727;28;20905;-72
2023/08/17 04:08:10;;;;;;;6.27;5.17;;;20.00;99.90;;;;;;5053872;28;20507;-73
2023/08/17 04:10:35;;;;;;;6.30;5.80;;;20.00;99.90;;;;;;5053958;28;20221;-73
2023/08/17 04:13:01;;;;;;;6.20;5.70;;;20.00;99.90;;;;;;5053657;28;20193;-73
2023/08/17 04:15:26;;;;;;;8.60;6.10;;;20.00;99.90;;;;;;5053536;28;20170;-72
2023/08/17 04:17:52;;;;;;;8.33;5.90;;;20.00;99.90;;;;;;5053750;28;20171;-73
2023/08/17 04:20:19;;;;;;;6.60;6.00;;;19.90;99.90;;;;;;5053523;28;20536;-73
2023/08/17 04:22:44;;;;;;;6.67;6.07;;;19.90;99.90;;;;;;5053468;28;20725;-72
2023/08/17 04:25:10;;;;;;;5.77;5.37;;;19.90;99.90;;;;;;5053360;28;20401;-73
2023/08/17 04:27:36;;;;;;;10.33;7.27;;;19.90;99.90;;;;;;5053451;28;20279;-73
2023/08/17 04:30:02;;;;;;;6.03;5.43;;;19.90;99.90;;;;;;5053496;28;20409;-72
2023/08/17 04:32:27;;;;;;;7.00;6.30;;;19.90;99.90;;;;;;5053482;28;20198;-72
2023/08/17 04:34:53;;;;;;;6.70;5.90;;;19.90;99.90;;;;;;5053012;28;20174;-72
2023/08/17 04:37:18;;;;;;;6.40;5.80;;;19.90;99.90;;;;;;5053212;28;20660;-73
2023/08/17 04:39:44;;;;;;;6.70;5.80;;;19.90;99.90;;;;;;5053706;28;20224;-72
2023/08/17 04:42:10;;;;;;;6.60;6.00;;;19.90;99.90;;;;;;5053163;28;20179;-73
2023/08/17 04:44:35;;;;;;;5.70;5.17;;;19.90;99.90;;;;;;5053274;28;20174;-73
2023/08/17 04:47:01;;;;;;;6.30;4.90;;;19.90;99.90;;;;;;5053004;28;20401;-72
2023/08/17 04:49:27;;;;;;;5.87;5.27;;;19.90;99.90;;;;;;5053072;28;20198;-73
2023/08/17 04:51:53;;;;;;;7.60;6.17;;;19.90;99.90;;;;;;5053148;28;20183;-73
2023/08/17 04:54:18;;;;;;;6.87;6.20;;;19.90;99.90;;;;;;5053044;28;20229;-73
2023/08/17 04:56:44;;;;;;;6.00;5.47;;;19.90;99.90;;;;;;5052754;28;20402;-73
2023/08/17 04:59:09;;;;;;;11.70;7.03;;;19.90;99.90;;;;;;5052971;28;20246;-72
2023/08/17 05:01:35;;;;;;;8.37;6.00;;;19.90;99.90;;;;;;5052714;28;20201;-73
2023/08/17 05:04:01;;;;;;;7.00;4.77;;;19.90;99.90;;;;;;5052964;28;20667;-72
2023/08/17 05:06:28;;;;;;;5.63;5.03;;;19.90;99.90;;;;;;5052663;28;20201;-73
2023/08/17 05:08:54;;;;;;;8.67;5.83;;;19.90;99.90;;;;;;5052635;28;20559;-72
2023/08/17 05:11:19;;;;;;;6.33;5.27;;;19.90;99.90;;;;;;5052743;28;20436;-73
2023/08/17 05:13:45;;;;;;;6.43;5.77;;;19.90;99.90;;;;;;5051976;28;20238;-73
2023/08/17 05:16:10;;;;;;;5.70;5.07;;;19.90;99.90;;;;;;5052509;28;20162;-73
2023/08/17 05:18:36;;;;;;;5.60;4.87;;;19.90;99.90;;;;;;5052611;28;20163;-72
2023/08/17 05:21:01;;;;;;;6.03;4.97;;;19.90;99.90;;;;;;5052503;28;20182;-73
2023/08/17 05:23:27;;;;;;;5.93;5.33;;;19.90;99.90;;;;;;5052576;28;20167;-73
2023/08/17 05:25:52;;;;;;;5.97;5.37;;;19.90;99.90;;;;;;5052202;28;20688;-73
2023/08/17 05:28:18;;;;;;;5.90;5.30;;;19.90;99.90;;;;;;5052325;28;20273;-71
2023/08/17 05:30:44;;;;;;;6.97;5.40;;;19.90;99.90;;;;;;5052299;28;20257;-73
2023/08/17 05:33:09;;;;;;;7.53;6.07;;;20.00;99.90;;;;;;5052447;28;20160;-73
2023/08/17 05:35:35;;;;;;;6.47;5.70;;;20.00;99.90;;;;;;5052051;28;20167;-72
2023/08/17 05:38:01;;;;;;;7.30;5.00;;;20.00;99.90;;;;;;5052341;28;20249;-72
2023/08/17 05:40:28;;;;;;;6.13;4.30;;;20.00;99.90;;;;;;5052300;28;20167;-73
2023/08/17 05:42:54;;;;;;;5.87;5.20;;;20.00;99.90;;;;;;5052058;28;20795;-73
2023/08/17 05:45:19;;;;;;;6.87;5.53;;;20.10;99.90;;;;;;5050391;28;20428;-73
2023/08/17 05:47:45;;;;;;;6.30;4.80;;;20.10;99.90;;;;;;5051975;28;20186;-73
2023/08/17 05:50:11;;;;;;;6.00;5.40;;;20.10;99.90;;;;;;5052038;28;20169;-72
2023/08/17 05:52:36;;;;;;;5.10;4.60;;;20.10;99.90;;;;;;5052034;28;20195;-73
2023/08/17 05:55:02;;;;;;;7.60;5.40;;;20.20;99.90;;;;;;5051688;28;20163;-72
2023/08/17 05:57:27;;;;;;;6.07;5.50;;;20.20;99.90;;;;;;5051961;28;20514;-73
2023/08/17 05:59:53;;;;;;;5.07;4.60;;;20.30;99.90;;;;;;5051897;28;20240;-72
2023/08/17 06:02:18;;;;;;;6.20;4.33;;;20.30;99.90;;;;;;5050598;28;20225;-73
2023/08/17 06:04:44;;;;;;;5.93;5.03;;;20.40;99.90;;;;;;5051834;28;20258;-73
2023/08/17 06:07:09;;;;;;;4.13;3.73;;;20.50;99.90;;;;;;5051596;28;20214;-73
2023/08/17 06:09:35;;;;;;;5.03;4.53;;;20.50;99.90;;;;;;5051898;28;20191;-73
2023/08/17 06:12:00;;;;;;;5.70;5.10;;;20.60;99.90;;;;;;5051471;28;20699;-73
2023/08/17 06:14:26;;;;;;;6.87;5.47;;;20.70;99.90;;;;;;5050332;28;20175;-73
2023/08/17 06:16:51;;;;;;;4.97;4.37;;;20.80;99.90;;;;;;5051443;28;20171;-73
2023/08/17 06:19:17;;;;;;;5.50;4.30;;;20.90;99.90;;;;;;5053461;28;20228;-70
2023/08/17 06:21:42;;;;;;;5.23;4.73;;;21.00;99.90;;;;;;5055126;28;20191;-70
2023/08/17 06:24:08;;;;;;;6.10;4.53;;;21.10;99.90;;;;;;5055735;28;20170;-70
2023/08/17 06:26:33;;;;;;;4.47;3.93;;;21.20;99.90;;;;;;5056657;28;20231;-70
2023/08/17 06:28:59;;;;;;;5.37;4.83;;;21.30;99.90;;;;;;5058113;28;20212;-71
2023/08/17 06:31:27;;;;;;;5.10;4.20;;;21.40;99.90;;;;;;5058524;28;20186;-71
2023/08/17 06:33:55;;;;;;;5.33;3.97;;;21.50;99.90;;;;;;5058146;28;20534;-71
2023/08/17 06:36:21;;;;;;;4.53;4.13;;;21.60;99.90;;;;;;5058373;28;20921;-70
2023/08/17 06:38:47;;;;;;;4.80;4.30;;;21.60;99.90;;;;;;5057947;28;20441;-70
2023/08/17 06:41:12;;;;;;;5.10;4.70;;;21.70;99.90;;;;;;5058071;28;20609;-71
2023/08/17 06:43:38;;;;;;;4.77;4.37;;;21.80;99.90;;;;;;5058118;28;20171;-70
2023/08/17 06:46:04;;;;;;;6.50;5.90;;;21.80;99.90;;;;;;5057963;28;20174;-71
2023/08/17 06:48:31;;;;;;;5.80;4.70;;;21.90;99.90;;;;;;5056692;28;20282;-71
2023/08/17 06:50:56;;;;;;;5.33;4.90;;;22.00;99.90;;;;;;5058015;28;20583;-71
2023/08/17 06:53:22;;;;;;;5.33;4.83;;;22.10;99.90;;;;;;5056593;28;20452;-70
2023/08/17 06:55:48;;;;;;;5.30;4.70;;;22.10;99.90;;;;;;5057195;28;20175;-71
2023/08/17 06:58:13;;;;;;;4.80;4.30;;;22.20;99.90;;;;;;5057628;28;20199;-70
2023/08/17 07:00:40;;;;;;;5.20;4.70;;;22.30;99.90;;;;;;5057869;28;20178;-70
2023/08/17 07:03:06;;;;;;;4.10;3.67;;;22.50;99.90;;;;;;5057888;28;20167;-71
2023/08/17 07:05:32;;;;;;;5.20;4.30;;;22.70;99.90;;;;;;5056202;28;20424;-71
2023/08/17 07:07:59;;;;;;;4.60;4.20;;;22.90;99.90;;;;;;5057230;28;20457;-70
2023/08/17 07:10:25;;;;;;;7.43;5.10;;;23.20;99.90;;;;;;5057153;28;20404;-71
2023/08/17 07:12:50;;;;;;;5.83;4.37;;;23.40;99.90;;;;;;5057278;28;20425;-71
2023/08/17 07:15:16;;;;;;;4.03;3.63;;;23.70;99.90;;;;;;5056924;28;20473;-70
2023/08/17 07:17:42;;;;;;;4.57;3.40;;;23.90;99.90;;;;;;5056205;28;20621;-70
2023/08/17 07:20:08;;;;;;;4.23;3.30;;;24.10;99.90;;;;;;5054342;28;20217;-71
2023/08/17 07:22:33;;;;;;;3.80;3.50;;;24.30;99.90;;;;;;5053505;28;20201;-72
2023/08/17 07:24:59;;;;;;;4.23;3.93;;;24.40;99.90;;;;;;5054582;28;20410;-71
2023/08/17 07:27:25;;;;;;;3.90;3.60;;;24.40;99.90;;;;;;5054639;28;20327;-72
2023/08/17 07:29:50;;;;;;;4.40;4.00;;;24.40;99.90;;;;;;5054773;28;20534;-71
2023/08/17 07:32:16;;;;;;;4.10;3.80;;;24.40;99.90;;;;;;5054677;28;20508;-71
2023/08/17 07:34:42;;;;;;;3.10;2.90;;;24.30;99.90;;;;;;5054704;28;20171;-71
2023/08/17 07:37:07;;;;;;;5.13;3.93;;;24.30;99.90;;;;;;5053616;28;20171;-71
2023/08/17 07:39:33;;;;;;;4.70;4.23;;;24.30;99.90;;;;;;5054523;28;20777;-70
2023/08/17 07:41:59;;;;;;;5.10;4.70;;;24.30;99.90;;;;;;5053222;28;20194;-71
2023/08/17 07:44:24;;;;;;;4.80;4.30;;;24.30;99.90;;;;;;5054472;28;20679;-71
2023/08/17 07:46:49;;;;;;;5.00;3.80;;;24.20;99.90;;;;;;5054261;28;20186;-72
2023/08/17 07:49:15;;;;;;;5.80;4.87;;;24.20;99.90;;;;;;5054578;28;20202;-72
2023/08/17 07:51:41;;;;;;;5.50;5.00;;;24.20;99.90;;;;;;5054715;28;20193;-72
2023/08/17 07:54:07;;;;;;;4.90;4.50;;;24.30;99.90;;;;;;5054884;28;20163;-73
2023/08/17 07:56:32;;;;;;;6.17;5.03;;;24.40;99.90;;;;;;5054472;28;20412;-72
2023/08/17 07:58:58;;;;;;;9.00;6.07;;;24.60;99.90;;;;;;5053344;28;20632;-71
2023/08/17 08:01:24;;;;;;;5.97;5.03;;;24.60;99.90;;;;;;5054564;28;20221;-73
2023/08/17 08:03:49;;;;;;;5.47;4.97;;;24.50;99.90;;;;;;5054609;28;20171;-72
2023/08/17 08:06:15;;;;;;;5.87;5.37;;;24.40;99.90;;;;;;5053110;28;20516;-73
2023/08/17 08:08:40;;;;;;;6.77;6.07;;;24.20;99.90;;;;;;5054300;28;20202;-73
2023/08/17 08:11:06;;;;;;;5.67;5.00;;;24.00;99.90;;;;;;5054513;28;20194;-72
2023/08/17 08:13:31;;;;;;;9.10;7.00;;;23.80;99.90;;;;;;5054437;28;20167;-72
2023/08/17 08:15:59;;;;;;;8.30;5.70;;;23.70;99.90;;;;;;5054265;28;20171;-72
2023/08/17 08:18:25;;;;;;;8.43;7.43;;;23.60;99.90;;;;;;5053098;28;20178;-73
2023/08/17 08:20:50;;;;;;;5.93;5.33;;;23.60;99.90;;;;;;5054479;28;20433;-72
2023/08/17 08:23:16;;;;;;;7.17;6.40;;;23.60;99.90;;;;;;5054096;28;20510;-72
2023/08/17 08:25:41;;;;;;;7.17;6.50;;;23.70;99.90;;;;;;5052873;28;20179;-73
2023/08/17 08:28:08;;;;;;;6.97;5.97;;;23.80;99.90;;;;;;5054194;28;20618;-72
2023/08/17 08:30:34;;;;;;;8.63;7.73;;;23.80;99.90;;;;;;5054297;28;20166;-72
2023/08/17 08:32:59;;;;;;;8.03;7.23;;;23.90;99.90;;;;;;5053988;28;20496;-73
2023/08/17 08:35:25;;;;;;;8.63;7.30;;;24.00;99.90;;;;;;5054069;28;20679;-72
2023/08/17 08:37:51;;;;;;;8.70;7.43;;;24.20;99.90;;;;;;5054045;28;20178;-72
2023/08/17 08:40:17;;;;;;;8.90;8.10;;;24.30;99.90;;;;;;5052785;28;20183;-73
2023/08/17 08:42:44;;;;;;;8.97;7.17;;;24.40;99.90;;;;;;5052769;28;20727;-72
2023/08/17 08:45:10;;;;;;;9.77;8.13;;;24.50;99.90;;;;;;5053436;28;20405;-72
2023/08/17 08:47:37;;;;;;;13.33;7.90;;;24.70;99.90;;;;;;5052788;28;20485;-73
2023/08/17 08:50:04;;;;;;;10.90;8.27;;;24.90;99.90;;;;;;5053598;28;20409;-73
2023/08/17 08:52:35;;;;;;;10.70;9.60;;;25.10;99.90;;;;;;5053182;28;20425;-72
2023/08/17 08:55:10;;;;;;;13.47;9.47;;;25.30;99.90;;;;;;5053372;28;20495;-72
2023/08/17 08:57:37;;;;;;;8.90;8.00;;;25.50;99.90;;;;;;5051908;28;20405;-72
2023/08/17 09:00:03;;;;;;;14.37;9.07;;;25.70;99.90;;;;;;5053126;28;20408;-73
2023/08/17 09:02:30;;;;;;;13.43;10.40;;;25.90;99.90;;;;;;5053134;28;20504;-73
2023/08/17 09:04:56;;;;;;;9.53;8.43;;;26.00;99.90;;;;;;5052975;28;20497;-73
2023/08/17 09:07:23;;;;;;;9.40;7.50;;;26.20;99.90;;;;;;5052706;28;20512;-73
2023/08/17 09:09:49;;;;;;;7.70;6.90;;;26.20;99.90;;;;;;5053069;28;20418;-72
2023/08/17 09:12:15;;;;;;;9.67;7.80;;;26.10;99.90;;;;;;5053164;28;20794;-73
2023/08/17 09:14:41;;;;;;;8.70;7.00;;;26.10;99.90;;;;;;5053176;28;20401;-72
2023/08/17 09:17:07;;;;;;;8.73;7.83;;;26.10;99.90;;;;;;5053286;28;20163;-72
2023/08/17 09:19:33;;;;;;;8.17;7.33;;;26.00;99.90;;;;;;5053034;28;20170;-73
2023/08/17 09:21:59;;;;;;;13.30;8.90;;;26.00;99.90;;;;;;5052773;28;20437;-73
2023/08/17 09:24:35;;;;;;;9.90;8.10;;;26.00;99.90;;;;;;5051552;28;20171;-71
2023/08/17 09:27:00;;;;;;;7.80;7.10;;;26.00;99.90;;;;;;5052613;28;20393;-71
2023/08/17 09:29:26;;;;;;;8.73;7.87;;;26.00;99.90;;;;;;5052767;28;20549;-74
2023/08/17 09:31:51;;;;;;;9.10;7.03;;;26.00;99.90;;;;;;5051388;28;20186;-73
2023/08/17 09:34:18;;;;;;;8.47;7.50;;;26.10;99.90;;;;;;5052721;28;20671;-73
2023/08/17 09:36:47;;;;;;;8.90;7.67;;;26.20;99.90;;;;;;5051098;28;20229;-72
2023/08/17 09:39:14;;;;;;;9.90;7.43;;;26.30;99.90;;;;;;5052515;28;20398;-72
2023/08/17 09:41:44;;;;;;;12.70;7.47;;;26.40;99.90;;;;;;5051067;28;20425;-73
2023/08/17 09:44:11;;;;;;;8.50;6.17;;;26.40;99.90;;;;;;5052399;28;20401;-72
2023/08/17 09:46:36;;;;;;;15.57;7.50;;;26.50;99.90;;;;;;5052041;28;20834;-73
2023/08/17 09:49:06;;;;;;;11.80;8.27;;;26.50;99.90;;;;;;5052254;28;20457;-73
2023/08/17 09:51:32;;;;;;;12.43;7.90;;;26.60;99.90;;;;;;5052263;28;20206;-73
2023/08/17 09:53:57;;;;;;;10.10;8.20;;;26.60;99.90;;;;;;5052605;28;20882;-73
2023/08/17 09:56:24;;;;;;;8.13;7.30;;;26.60;99.90;;;;;;5052092;28;20209;-72
2023/08/17 09:58:50;;;;;;;7.60;6.90;;;26.70;99.90;;;;;;5051808;28;20182;-72
2023/08/17 10:01:17;;;;;;;9.13;6.87;;;26.70;99.90;;;;;;5052078;28;20531;-72
2023/08/17 10:03:47;;;;;;;9.40;7.60;;;26.80;99.90;;;;;;5050905;28;20925;-73
2023/08/17 10:06:15;;;;;;;8.97;6.00;;;27.00;99.90;;;;;;5051922;28;20450;-73
2023/08/17 10:08:48;;;;;;;8.67;6.80;;;27.20;99.90;;;;;;5051949;28;20465;-72
2023/08/17 10:11:18;;;;;;;8.23;7.00;;;27.40;99.90;;;;;;5052187;28;20974;-73
2023/08/17 10:13:52;;;;;;;9.17;7.97;;;27.70;99.90;;;;;;5051930;28;20409;-73
2023/08/17 10:16:26;;;;;;;9.20;7.57;;;27.80;99.90;;;;;;5050627;28;20914;-72
2023/08/17 10:19:17;;;;;;;9.63;7.10;;;27.90;99.90;;;;;;5050887;28;20416;-73
2023/08/17 10:21:54;;;;;;;10.43;9.17;;;27.80;99.90;;;;;;5051937;28;20421;-73
2023/08/17 10:24:19;;;;;;;10.70;9.30;;;27.80;99.90;;;;;;5051964;28;20512;-74
2023/08/17 10:26:46;;;;;;;9.40;8.40;;;27.70;99.90;;;;;;5051807;28;20492;-73
2023/08/17 10:29:12;;;;;;;7.57;6.77;;;27.70;99.90;;;;;;5052095;28;20195;-73
2023/08/17 10:31:38;;;;;;;9.90;7.00;;;27.70;99.90;;;;;;5052018;28;20427;-73
2023/08/17 10:34:04;;;;;;;10.93;8.27;;;27.70;99.90;;;;;;5051952;28;20440;-73
2023/08/17 10:36:32;;;;;;;9.97;6.87;;;27.60;99.90;;;;;;5051711;28;20492;-73
2023/08/17 10:39:27;;;;;;;6.23;5.63;;;27.60;99.90;;;;;;5051826;28;20410;-73
2023/08/17 10:41:54;;;;;;;9.80;6.80;;;27.70;99.90;;;;;;5051462;28;20445;-73
2023/08/17 10:44:44;;;;;;;7.83;6.97;;;27.80;99.90;;;;;;5052057;28;20402;-73
2023/08/17 10:47:30;;;;;;;8.50;7.73;;;27.80;99.90;;;;;;5051677;28;20432;-72
2023/08/17 10:50:09;;;;;;;11.43;7.20;;;27.80;99.90;;;;;;5051773;28;20417;-73
2023/08/17 10:52:37;;;;;;;11.77;8.07;;;27.80;99.90;;;;;;5050546;28;20511;-72
2023/08/17 10:55:09;;;;;;;9.13;7.13;;;27.70;99.90;;;;;;5051622;28;20413;-72
2023/08/17 10:57:43;;;;;;;10.27;6.23;;;27.60;99.90;;;;;;5051942;28;20416;-73
2023/08/17 11:00:15;;;;;;;8.70;7.07;;;27.60;99.90;;;;;;5051622;28;20933;-73
2023/08/17 11:02:43;;;;;;;10.03;8.57;;;27.40;99.90;;;;;;5050695;28;20785;-72
2023/08/17 11:05:09;;;;;;;8.93;7.00;;;27.30;99.90;;;;;;5051242;28;20437;-71
2023/08/17 11:07:43;;;;;;;8.67;7.37;;;27.10;99.90;;;;;;5051504;28;20997;-72
2023/08/17 11:10:18;;;;;;;9.10;7.37;;;26.90;99.90;;;;;;5051550;28;20415;-73
2023/08/17 11:12:44;;;;;;;7.27;6.10;;;26.80;99.90;;;;;;5055163;28;20428;-72
2023/08/17 11:15:09;;;;;;;9.00;6.93;;;26.70;99.90;;;;;;5054940;28;20451;-72
2023/08/17 11:17:35;;;;;;;7.50;6.50;;;26.50;99.90;;;;;;5055319;28;20174;-73
2023/08/17 11:20:01;;;;;;;7.80;7.00;;;26.40;99.90;;;;;;5055154;28;20167;-73
2023/08/17 11:22:27;;;;;;;8.90;8.00;;;26.10;99.90;;;;;;5055220;28;20183;-72
2023/08/17 11:24:53;;;;;;;8.27;6.90;;;26.00;99.90;;;;;;5054911;28;20459;-72
2023/08/17 11:27:20;;;;;;;11.50;8.23;;;26.00;99.90;;;;;;5053478;28;20421;-73
2023/08/17 11:29:45;;;;;;;8.30;7.00;;;25.90;99.90;;;;;;5055027;28;20601;-72
2023/08/17 11:32:12;;;;;;;9.13;7.17;;;25.80;99.90;;;;;;5054977;28;20428;-73
2023/08/17 11:34:38;;;;;;;10.17;7.80;;;25.80;99.90;;;;;;5053731;28;20175;-73
2023/08/17 11:37:04;;;;;;;10.43;7.57;;;25.70;99.90;;;;;;5054838;28;20409;-73
2023/08/17 11:39:33;;;;;;;9.83;7.33;;;25.70;99.90;;;;;;5055008;28;20198;-72
2023/08/17 11:42:00;;;;;;;8.93;6.50;;;25.70;99.90;;;;;;5054684;28;20508;-73
2023/08/17 11:44:25;;;;;;;7.97;6.20;;;25.70;99.90;;;;;;5054908;28;20401;-73
2023/08/17 11:46:51;;;;;;;8.70;6.77;;;25.70;99.90;;;;;;5054378;28;20462;-73
2023/08/17 11:49:17;;;;;;;8.57;6.23;;;25.70;99.90;;;;;;5054746;28;20559;-73
2023/08/17 11:51:43;;;;;;;8.23;6.80;;;25.60;99.90;;;;;;5054633;28;20191;-73
2023/08/17 11:54:08;;;;;;;8.10;7.30;;;25.60;99.90;;;;;;5054663;28;20811;-72
2023/08/17 11:56:34;;;;;;;10.63;6.87;;;25.50;99.90;;;;;;5054567;28;20182;-71
2023/08/17 11:59:11;;;;;;;7.47;6.70;;;25.50;99.90;;;;;;5053267;28;20171;-73
2023/08/17 12:01:36;;;;;;;7.50;6.60;;;25.40;99.90;;;;;;5054628;28;20432;-72
2023/08/17 12:04:04;;;;;;;7.50;6.77;;;25.30;99.90;;;;;;5054480;28;20413;-71
2023/08/17 12:06:30;;;;;;;8.73;7.20;;;25.30;99.90;;;;;;5055506;28;20554;-73
2023/08/17 12:08:56;;;;;;;6.67;6.07;;;25.30;99.90;;;;;;5053539;28;20468;-73
2023/08/17 12:11:24;;;;;;;9.73;6.63;;;25.30;99.90;;;;;;5053941;28;20429;-73
2023/08/17 12:13:51;;;;;;;7.23;6.30;;;25.30;99.90;;;;;;5054173;28;20212;-72
2023/08/17 12:16:17;;;;;;;9.47;6.57;;;25.40;99.90;;;;;;5053988;28;20480;-72
2023/08/17 12:18:52;;;;;;;10.00;7.17;;;25.50;99.90;;;;;;5053973;28;20413;-72
2023/08/17 12:21:22;;;;;;;16.97;13.03;;;25.70;99.90;;;;;;5054182;28;20511;-73
2023/08/17 12:23:48;;;;;;;14.50;12.03;;;26.10;99.90;;;;;;5054439;28;20416;-73
2023/08/17 12:26:20;;;;;;;8.90;7.60;;;26.70;99.90;;;;;;5056498;28;20413;-72
2023/08/17 12:28:46;;;;;;;8.57;7.67;;;28.10;99.90;;;;;;5055656;28;20193;-73
2023/08/17 12:31:11;;;;;;;7.63;6.93;;;30.40;99.90;;;;;;5053998;28;20429;-73
2023/08/17 12:33:37;;;;;;;10.67;7.17;;;33.40;99.90;;;;;;5056311;28;20174;-72
2023/08/17 12:36:04;;;;;;;7.53;6.77;;;35.90;99.40;;;;;;5056936;28;20198;-73
2023/08/17 12:38:29;;;;;;;9.87;8.73;;;37.20;83.00;;;;;;5056297;28;20163;-73
2023/08/17 12:40:55;;;;;;;7.60;6.90;;;37.30;63.70;;;;;;5055912;28;20409;-72
2023/08/17 12:43:21;;;;;;;8.83;6.93;;;36.90;62.40;;;;;;5056898;28;20167;-73